Time;durP1;ratioP1;P1;durP2;ratioP2;P2;SDS_P1;SDS_P2;PMS_P1;PMS_P2;Temp;Humidity;BMP_temperature;BMP_pressure;BME280_temperature;BME280_humidity;BME280_pressure;Samples;Min_cycle;Max_cycle;Signal;HPM_P1;HPM_P2
2022/08/14 00:00:48;;;;;;;7.97;5.63;;;20.20;57.20;;;20.83;89.29;99384.03;5043144;27;115643;-71
2022/08/14 00:03:22;;;;;;;6.90;5.15;;;20.20;60.80;;;20.90;88.98;99382.50;5045717;27;129565;-71
2022/08/14 00:05:53;;;;;;;8.30;5.57;;;20.20;62.50;;;20.81;89.55;99380.84;5043867;27;130258;-72
2022/08/14 00:08:21;;;;;;;8.23;5.47;;;20.20;62.40;;;20.79;89.79;99376.91;5043927;27;119568;-73
2022/08/14 00:10:51;;;;;;;8.70;4.88;;;20.10;64.90;;;20.76;90.18;99383.19;5044144;27;115483;-72
2022/08/14 00:13:22;;;;;;;8.82;6.05;;;20.10;66.70;;;20.70;90.39;99374.47;5045666;27;130515;-73
2022/08/14 00:15:52;;;;;;;8.82;5.80;;;20.10;69.00;;;20.60;91.24;99381.47;5043798;27;129999;-72
2022/08/14 00:18:24;;;;;;;8.05;5.63;;;20.10;69.80;;;20.64;91.31;99370.47;5044253;27;119321;-72
2022/08/14 00:20:59;;;;;;;7.57;5.35;;;20.10;72.30;;;20.66;91.09;99379.16;5044025;27;115020;-73
2022/08/14 00:23:28;;;;;;;11.25;6.45;;;20.10;73.20;;;20.62;91.28;99378.34;5043312;27;129809;-72
2022/08/14 00:25:57;;;;;;;7.95;5.15;;;20.10;76.10;;;20.64;91.40;99375.97;5043497;27;129200;-70
2022/08/14 00:28:27;;;;;;;8.73;5.35;;;20.10;75.80;;;20.71;90.66;99372.50;5043583;27;119637;-72
2022/08/14 00:30:58;;;;;;;10.00;5.90;;;20.10;74.90;;;20.74;90.85;99372.56;5042558;27;115000;-72
2022/08/14 00:33:28;;;;;;;11.10;6.13;;;20.10;76.40;;;20.72;91.12;99371.34;5043178;27;129944;-73
2022/08/14 00:35:58;;;;;;;8.57;5.57;;;20.10;78.30;;;20.70;91.32;99366.22;5043242;27;129338;-71
2022/08/14 00:38:27;;;;;;;9.93;5.60;;;20.10;79.00;;;20.68;91.59;99374.09;5043494;27;118898;-72
2022/08/14 00:40:55;;;;;;;7.60;5.38;;;20.10;80.10;;;20.72;91.46;99366.59;5043985;27;114930;-73
2022/08/14 00:43:24;;;;;;;7.25;5.65;;;20.10;81.50;;;20.68;91.59;99365.81;5042986;27;129552;-73
2022/08/14 00:45:52;;;;;;;10.10;5.72;;;20.10;82.90;;;20.72;91.54;99372.13;5044733;27;128252;-73
2022/08/14 00:48:21;;;;;;;9.93;6.18;;;20.10;83.00;;;20.78;91.23;99376.09;5043021;27;118796;-73
2022/08/14 00:50:50;;;;;;;9.00;6.25;;;20.10;84.50;;;20.78;91.46;99370.59;5045433;27;114969;-71
2022/08/14 00:53:21;;;;;;;8.73;5.72;;;20.10;86.60;;;20.77;91.78;99374.53;5042868;27;130015;-72
2022/08/14 00:55:51;;;;;;;8.15;5.90;;;20.10;88.10;;;20.71;92.29;99365.03;5045046;27;128915;-73
2022/08/14 00:58:32;;;;;;;11.20;6.18;;;20.10;90.30;;;20.69;92.78;99361.06;5043108;27;118750;-72
2022/08/14 01:01:04;;;;;;;7.97;6.00;;;20.10;92.70;;;20.68;92.90;99356.72;5045259;27;114874;-73
2022/08/14 01:03:38;;;;;;;8.32;5.85;;;20.10;94.00;;;20.58;93.58;99356.22;5043127;27;129850;-74
2022/08/14 01:06:09;;;;;;;8.45;5.75;;;20.10;94.10;;;20.58;93.87;99352.69;5044722;27;129174;-72
2022/08/14 01:08:40;;;;;;;11.98;5.90;;;20.10;94.00;;;20.60;93.61;99347.59;5043078;27;119397;-73
2022/08/14 01:11:14;;;;;;;9.10;6.40;;;20.10;94.00;;;20.63;93.64;99346.81;5043165;27;115004;-73
2022/08/14 01:13:45;;;;;;;8.27;5.70;;;20.00;94.00;;;20.54;93.98;99349.16;5042432;27;129793;-73
2022/08/14 01:16:19;;;;;;;10.10;5.90;;;20.00;94.00;;;20.55;94.01;99351.47;5042643;27;130001;-72
2022/08/14 01:21:38;;;;;;;7.32;5.60;;;20.00;94.00;;;20.55;94.04;99343.22;5042867;27;115672;-72
2022/08/14 01:24:09;;;;;;;8.52;6.28;;;20.00;94.00;;;20.56;94.16;99347.56;5042260;27;129962;-72
2022/08/14 01:26:37;;;;;;;10.20;5.97;;;20.00;94.00;;;20.57;94.24;99340.06;5044404;27;128927;-73
2022/08/14 01:29:06;;;;;;;8.13;5.82;;;20.00;94.00;;;20.63;93.85;99344.06;5042566;27;118512;-73
2022/08/14 01:31:38;;;;;;;9.45;5.90;;;20.00;94.90;;;20.59;93.84;99343.25;5043022;27;115535;-73
2022/08/14 01:34:07;;;;;;;9.15;5.65;;;20.00;94.00;;;20.65;93.76;99344.53;5042266;27;129820;-73
2022/08/14 01:36:38;;;;;;;11.52;6.40;;;20.00;94.00;;;20.62;93.79;99345.25;5044032;27;128432;-73
2022/08/14 01:39:10;;;;;;;8.02;5.80;;;20.10;94.10;;;20.63;93.97;99346.81;5044334;27;118212;-73
2022/08/14 01:41:40;;;;;;;10.95;6.05;;;20.10;95.00;;;20.66;93.97;99351.59;5042623;27;115791;-72
2022/08/14 01:44:14;;;;;;;7.25;5.80;;;20.10;96.60;;;20.67;93.97;99347.69;5041972;27;129980;-72
2022/08/14 01:46:45;;;;;;;11.13;5.97;;;20.00;97.80;;;20.63;94.27;99346.81;5043596;27;130216;-72
2022/08/14 01:49:15;;;;;;;10.20;6.05;;;20.10;99.10;;;20.62;94.61;99339.75;5042395;27;118823;-72
2022/08/14 01:51:46;;;;;;;7.88;6.22;;;20.10;99.80;;;20.68;94.38;99349.28;5042303;27;115051;-71
2022/08/14 01:54:19;;;;;;;9.40;5.70;;;20.00;99.90;;;20.76;93.45;99348.13;5027400;27;128680;-72
2022/08/14 01:56:50;;;;;;;10.45;6.40;;;20.00;99.90;;;20.82;93.03;99349.34;5041606;27;130841;-72
2022/08/14 01:59:27;;;;;;;8.60;6.47;;;20.00;99.90;;;20.80;93.61;99350.91;5042209;27;118655;-71
2022/08/14 02:01:57;;;;;;;6.95;5.70;;;20.00;99.90;;;20.70;94.42;99338.63;5042138;27;115065;-73
2022/08/14 02:04:29;;;;;;;9.43;6.57;;;20.00;99.90;;;20.60;95.49;99342.06;5041632;27;130437;-71
2022/08/14 02:07:01;;;;;;;10.82;6.43;;;20.00;99.90;;;20.59;95.72;99351.53;5043679;27;129092;-73
2022/08/14 02:09:34;;;;;;;9.63;6.70;;;19.90;99.90;;;20.57;96.14;99342.84;5044089;27;117391;-73
2022/08/14 02:12:03;;;;;;;9.07;6.43;;;19.90;99.90;;;20.64;95.69;99342.91;5042252;27;114989;-73
2022/08/14 02:14:32;;;;;;;9.43;6.40;;;20.00;99.90;;;20.74;94.90;99357.94;5043633;27;129756;-73
2022/08/14 02:17:02;;;;;;;14.50;6.70;;;20.00;99.90;;;20.81;94.31;99353.28;5041696;27;129263;-72
2022/08/14 02:19:34;;;;;;;9.57;6.50;;;20.00;99.90;;;20.82;94.40;99351.34;5042131;27;120193;-71
2022/08/14 02:22:05;;;;;;;10.93;6.50;;;20.00;99.90;;;20.77;94.42;99352.47;5042246;27;116164;-73
2022/08/14 02:24:34;;;;;;;9.93;6.00;;;20.00;99.90;;;20.66;95.50;99351.59;5041425;27;129880;-73
2022/08/14 02:27:04;;;;;;;10.77;6.28;;;20.00;99.90;;;20.57;96.07;99348.34;5041492;27;129618;-71
2022/08/14 02:29:32;;;;;;;10.95;6.43;;;19.90;99.90;;;20.47;96.41;99339.66;5041706;27;118910;-72
2022/08/14 02:32:02;;;;;;;9.73;6.20;;;19.90;99.90;;;20.40;97.13;99355.34;5043833;27;115139;-72
2022/08/14 02:34:35;;;;;;;9.95;6.45;;;19.80;99.90;;;20.44;96.90;99356.94;5039972;27;129655;-73
2022/08/14 02:37:09;;;;;;;10.73;6.82;;;19.90;99.90;;;20.53;96.21;99366.84;5041474;27;129688;-73
2022/08/14 02:39:42;;;;;;;8.90;6.10;;;19.90;99.90;;;20.59;95.75;99352.31;5041992;27;119770;-73
2022/08/14 02:42:15;;;;;;;8.25;5.93;;;19.80;99.90;;;20.58;95.89;99358.22;5042115;27;115058;-73
2022/08/14 02:44:45;;;;;;;7.93;6.20;;;19.80;99.90;;;20.57;95.85;99353.84;5041248;27;130073;-71
2022/08/14 02:47:14;;;;;;;11.52;6.65;;;19.80;99.90;;;20.51;96.58;99350.69;5043047;27;129749;-71
2022/08/14 02:49:44;;;;;;;11.90;6.35;;;19.90;99.90;;;20.57;96.02;99351.09;5041534;27;119628;-72
2022/08/14 02:52:14;;;;;;;9.27;6.82;;;19.90;99.90;;;20.59;95.92;99351.53;5041518;27;115662;-72
2022/08/14 02:54:42;;;;;;;9.38;6.55;;;19.90;99.90;;;20.58;95.83;99350.72;5043010;27;130087;-73
2022/08/14 02:57:12;;;;;;;11.27;6.72;;;19.90;99.90;;;20.53;95.96;99353.06;5045525;27;128972;-72
2022/08/14 02:59:42;;;;;;;9.07;5.97;;;19.90;99.90;;;20.56;96.06;99353.06;5040724;27;119528;-72
2022/08/14 03:02:11;;;;;;;9.05;6.28;;;19.90;99.90;;;20.59;95.83;99357.03;5041749;27;115239;-72
2022/08/14 03:04:40;;;;;;;8.93;5.95;;;19.90;99.90;;;20.56;95.50;99346.78;5041195;27;129627;-72
2022/08/14 03:07:09;;;;;;;9.25;6.55;;;19.90;99.90;;;20.53;95.70;99353.84;5043055;27;129182;-72
2022/08/14 03:09:39;;;;;;;10.13;5.90;;;19.90;99.90;;;20.55;95.67;99358.97;5045063;27;119193;-72
2022/08/14 03:12:08;;;;;;;8.57;6.32;;;19.90;99.90;;;20.50;95.93;99353.81;5045292;27;115006;-72
2022/08/14 03:14:38;;;;;;;7.70;5.85;;;19.90;99.90;;;20.41;96.88;99357.72;5044385;27;130147;-72
2022/08/14 03:17:10;;;;;;;8.95;6.35;;;19.80;99.90;;;20.34;97.34;99363.16;5044679;27;129879;-71
2022/08/14 03:19:39;;;;;;;8.52;6.28;;;19.80;99.90;;;20.26;97.70;99356.00;5044590;27;119269;-74
2022/08/14 03:22:07;;;;;;;9.18;6.05;;;19.70;99.90;;;20.28;97.80;99348.13;5043647;27;115710;-71
2022/08/14 03:24:36;;;;;;;8.73;6.32;;;19.70;99.90;;;20.32;97.60;99360.00;5044219;27;129989;-72
2022/08/14 03:27:06;;;;;;;10.02;6.18;;;19.70;99.90;;;20.32;97.59;99365.50;5044155;27;129750;-73
2022/08/14 03:29:35;;;;;;;9.85;6.00;;;19.70;99.90;;;20.33;97.58;99361.56;5043374;27;118904;-73
2022/08/14 03:32:05;;;;;;;9.13;5.85;;;19.70;99.90;;;20.31;97.83;99347.38;5046756;27;115582;-71
2022/08/14 03:34:34;;;;;;;9.75;6.10;;;19.70;99.90;;;20.32;97.74;99360.00;5044384;27;129815;-71
2022/08/14 03:37:02;;;;;;;9.60;6.57;;;19.70;99.90;;;20.27;97.81;99357.56;5046262;27;128911;-73
2022/08/14 03:39:31;;;;;;;9.27;6.82;;;19.70;99.90;;;20.27;98.15;99358.38;5044493;27;118624;-72
2022/08/14 03:42:00;;;;;;;11.82;6.63;;;19.70;99.90;;;20.27;98.13;99352.06;5044454;27;114968;-73
2022/08/14 03:44:33;;;;;;;11.48;6.90;;;19.70;99.90;;;20.24;98.40;99355.56;5042611;27;130012;-73
2022/08/14 03:47:02;;;;;;;10.25;7.18;;;19.70;99.90;;;20.26;98.44;99361.50;5045518;27;128881;-74
2022/08/14 03:49:31;;;;;;;10.20;6.78;;;19.70;99.90;;;20.30;98.21;99356.81;5042989;27;119296;-72
2022/08/14 03:52:04;;;;;;;9.27;6.35;;;19.70;99.90;;;20.33;97.86;99356.03;5046719;27;114676;-73
2022/08/14 03:54:34;;;;;;;8.52;6.30;;;19.70;99.90;;;20.36;97.91;99360.00;5042521;27;129993;-73
2022/08/14 03:57:04;;;;;;;10.10;6.15;;;19.70;99.90;;;20.36;97.89;99355.28;5043765;27;129669;-72
2022/08/14 03:59:34;;;;;;;7.80;6.07;;;19.70;99.90;;;20.46;97.30;99360.09;5044245;27;118876;-72
2022/08/14 04:02:03;;;;;;;9.70;6.80;;;19.80;99.90;;;20.47;97.06;99361.69;5044526;27;115173;-71
2022/08/14 04:04:33;;;;;;;11.38;6.63;;;19.80;99.90;;;20.51;96.77;99360.94;5043774;27;131253;-72
2022/08/14 04:07:01;;;;;;;8.25;6.40;;;19.80;99.90;;;20.52;96.62;99363.31;5043604;27;129471;-72
2022/08/14 04:09:30;;;;;;;10.00;6.70;;;19.90;99.90;;;20.63;96.01;99357.84;5045885;27;119268;-72
2022/08/14 04:11:58;;;;;;;8.57;6.55;;;19.90;99.90;;;20.68;95.88;99354.78;5043967;27;115969;-71
2022/08/14 04:14:28;;;;;;;11.43;6.55;;;20.00;99.90;;;20.66;95.94;99359.88;5045533;27;129529;-72
2022/08/14 04:16:58;;;;;;;9.02;6.18;;;20.00;99.90;;;20.72;95.63;99361.09;5045639;27;128603;-72
2022/08/14 04:19:27;;;;;;;11.27;6.28;;;20.00;99.90;;;20.72;95.70;99361.09;5043635;27;119021;-72
2022/08/14 04:21:55;;;;;;;13.20;6.63;;;20.00;99.90;;;20.74;96.28;99361.53;5044063;27;115024;-72
2022/08/14 04:24:24;;;;;;;9.88;5.85;;;20.00;99.90;;;20.72;96.60;99360.31;5043555;27;129773;-71
2022/08/14 04:26:52;;;;;;;8.77;6.45;;;19.90;99.90;;;20.77;96.34;99366.28;5043997;27;130205;-73
2022/08/14 04:29:21;;;;;;;11.00;6.65;;;20.00;99.90;;;20.80;96.12;99361.94;5043517;27;118554;-72
2022/08/14 04:31:49;;;;;;;9.70;7.22;;;20.10;99.90;;;20.89;95.37;99358.84;5043760;27;115292;-72
2022/08/14 04:34:19;;;;;;;9.32;7.00;;;20.10;99.90;;;20.89;95.26;99358.84;5028111;27;128902;-72
2022/08/14 04:45:07;;;;;;;9.43;6.07;;;20.30;99.90;;;21.21;93.74;99361.78;5043105;27;129672;-73
2022/08/14 04:50:23;;;;;;;9.37;6.60;;;20.60;99.90;;;21.64;90.49;99353.69;5043074;27;119062;-72
2022/08/14 04:52:51;;;;;;;10.95;6.50;;;20.70;97.70;;;21.83;89.49;99354.53;5043891;27;115579;-73
2022/08/14 04:55:20;;;;;;;8.77;6.45;;;20.90;94.40;;;21.98;88.61;99345.09;5042949;27;129919;-72
2022/08/14 04:57:49;;;;;;;8.77;6.72;;;21.00;94.40;;;22.07;87.72;99348.25;5042866;27;130113;-72
2022/08/14 05:00:18;;;;;;;11.75;6.78;;;21.00;90.80;;;22.08;87.79;99351.84;5043104;27;118867;-72
2022/08/14 05:02:46;;;;;;;8.25;6.45;;;21.00;94.40;;;22.16;87.12;99344.31;5043367;27;115780;-72
2022/08/14 05:05:15;;;;;;;8.25;6.82;;;21.00;91.80;;;21.97;88.17;99338.00;5042682;27;130046;-71
2022/08/14 05:07:46;;;;;;;8.95;5.63;;;20.90;94.40;;;22.10;88.02;99346.69;5044847;27;129112;-71
2022/08/14 05:10:14;;;;;;;8.25;6.10;;;21.00;94.40;;;22.12;87.93;99338.00;5043413;27;118712;-72
2022/08/14 05:12:43;;;;;;;7.95;6.35;;;21.00;94.40;;;22.11;88.12;99334.47;5044757;27;116163;-73
2022/08/14 05:15:13;;;;;;;9.48;6.18;;;21.00;94.40;;;22.29;87.81;99336.44;5042626;27;129987;-72
2022/08/14 05:17:43;;;;;;;9.05;6.30;;;21.10;94.50;;;22.34;86.92;99344.34;5042724;27;129216;-72
2022/08/14 05:20:12;;;;;;;9.35;6.38;;;21.10;94.50;;;22.49;86.83;99345.94;5061963;27;118563;-72
2022/08/14 05:22:40;;;;;;;8.75;6.80;;;21.30;90.60;;;22.59;85.44;99350.69;5042763;27;115741;-73
2022/08/14 05:25:10;;;;;;;8.32;6.07;;;21.30;88.10;;;22.55;85.66;99355.41;5042066;27;129928;-71
2022/08/14 05:27:39;;;;;;;8.75;6.10;;;21.30;87.40;;;22.52;86.46;99349.91;5041331;27;129456;-72
2022/08/14 05:30:10;;;;;;;11.07;6.70;;;21.30;87.80;;;22.55;86.59;99344.34;5041865;27;118809;-72
2022/08/14 05:32:38;;;;;;;14.32;7.90;;;21.40;85.80;;;22.69;85.44;99335.25;5042720;27;115163;-74
2022/08/14 05:35:10;;;;;;;10.38;7.20;;;21.50;74.80;;;22.64;85.59;99330.13;5042230;27;130062;-72
2022/08/14 05:37:40;;;;;;;13.82;7.88;;;21.50;78.00;;;22.77;85.22;99338.78;5044195;27;129036;-72
2022/08/14 05:40:12;;;;;;;9.40;6.90;;;21.60;74.50;;;22.89;84.38;99341.13;5042846;27;118777;-74
2022/08/14 05:42:40;;;;;;;11.80;7.95;;;21.60;68.50;;;23.01;83.62;99336.34;5042758;27;115152;-74
2022/08/14 05:45:11;;;;;;;13.70;7.40;;;21.70;60.10;;;23.27;82.50;99333.13;5042288;27;130697;-72
2022/08/14 05:47:41;;;;;;;12.45;7.60;;;21.90;56.90;;;23.62;81.34;99331.41;5044443;27;129111;-75
2022/08/14 05:50:12;;;;;;;9.75;6.18;;;22.20;49.80;;;23.71;79.41;99342.00;5042220;27;118736;-72
2022/08/14 05:52:41;;;;;;;8.95;6.45;;;22.20;39.30;;;23.41;81.30;99337.03;5040863;27;115391;-73
2022/08/14 05:55:12;;;;;;;8.85;6.45;;;22.20;39.40;;;23.64;80.60;99340.09;5041887;27;130421;-73
2022/08/14 05:57:49;;;;;;;11.77;6.78;;;22.30;39.30;;;23.87;79.37;99330.47;5041888;27;130135;-73
2022/08/14 06:00:21;;;;;;;8.55;6.55;;;22.50;33.60;;;23.90;78.78;99335.19;5041278;27;118470;-72
2022/08/14 06:02:49;;;;;;;10.82;6.30;;;22.50;24.70;;;23.82;78.78;99333.63;5042321;27;115096;-73
2022/08/14 06:05:18;;;;;;;9.50;6.80;;;22.40;27.20;;;23.90;79.33;99329.66;5042004;27;129896;-75
2022/08/14 06:07:46;;;;;;;10.15;7.18;;;22.50;26.90;;;24.12;77.88;99330.31;5042343;27;129509;-73
2022/08/14 06:10:16;;;;;;;9.15;7.15;;;22.50;25.60;;;24.02;78.85;99331.94;5042054;27;118745;-73
2022/08/14 06:12:45;;;;;;;8.82;6.43;;;22.50;29.00;;;24.17;78.47;99338.19;5042106;27;114932;-74
2022/08/14 06:15:13;;;;;;;9.02;6.28;;;22.70;23.60;;;24.31;78.04;99331.72;5043397;27;129760;-72
2022/08/14 06:17:46;;;;;;;8.85;7.22;;;22.80;24.20;;;24.36;77.41;99325.75;5041542;27;129133;-73
2022/08/14 06:20:15;;;;;;;8.07;7.03;;;22.80;22.20;;;24.43;77.38;99333.19;5041973;27;118909;-73
2022/08/14 06:22:45;;;;;;;10.32;7.40;;;22.90;15.20;;;24.46;77.09;99331.59;5041803;27;115580;-74
2022/08/14 06:25:16;;;;;;;9.30;7.35;;;22.90;19.40;;;24.59;76.80;99335.50;5041439;27;131168;-71
2022/08/14 06:27:47;;;;;;;9.80;7.68;;;23.00;16.40;;;24.26;77.79;99332.16;5041717;27;129570;-73
2022/08/14 06:30:18;;;;;;;10.98;7.70;;;22.80;22.90;;;24.33;78.07;99337.66;5041808;27;118923;-74
2022/08/14 06:32:48;;;;;;;11.57;7.55;;;22.80;26.60;;;24.62;76.46;99333.84;5043381;27;114991;-72
2022/08/14 06:35:19;;;;;;;10.88;7.20;;;23.00;15.30;;;24.52;76.67;99347.38;5042158;27;129969;-74
2022/08/14 06:37:50;;;;;;;10.77;7.18;;;22.90;13.50;;;24.64;76.31;99343.34;5041390;27;129254;-73
2022/08/14 06:40:23;;;;;;;10.30;7.10;;;23.00;15.20;;;24.47;76.95;99349.84;5041575;27;119510;-73
2022/08/14 06:42:52;;;;;;;9.40;6.93;;;22.90;20.10;;;24.40;77.68;99339.56;5041367;27;115823;-72
2022/08/14 06:45:21;;;;;;;10.38;6.88;;;22.70;25.10;;;24.54;76.84;99341.44;5041041;27;130057;-73
2022/08/14 06:47:50;;;;;;;11.05;7.90;;;22.90;16.50;;;24.39;77.77;99340.78;5041645;27;129834;-71
2022/08/14 06:50:21;;;;;;;11.10;7.80;;;22.80;28.50;;;24.18;78.70;99338.97;5041496;27;118765;-73
2022/08/14 06:52:50;;;;;;;8.40;6.72;;;22.80;25.20;;;24.25;78.57;99341.69;5041381;27;115074;-72
2022/08/14 06:55:21;;;;;;;11.30;7.43;;;22.70;28.60;;;24.00;80.12;99345.44;5041351;27;129661;-75
2022/08/14 06:57:51;;;;;;;11.57;8.25;;;22.50;41.90;;;23.83;81.19;99343.53;5041441;27;129472;-72
2022/08/14 07:00:23;;;;;;;10.93;7.82;;;22.40;44.70;;;23.79;80.70;99351.06;5041585;27;118811;-74
2022/08/14 07:05:45;;;;;;;11.55;7.78;;;22.40;39.40;;;23.92;79.80;99349.44;5039562;27;130667;-72
2022/08/14 07:08:17;;;;;;;11.68;7.45;;;22.40;36.40;;;23.97;79.15;99354.56;5041074;27;129514;-73
2022/08/14 07:10:49;;;;;;;14.55;8.20;;;22.50;31.70;;;23.90;79.95;99349.03;5041331;27;119408;-73
2022/08/14 07:13:18;;;;;;;9.68;7.53;;;22.50;35.20;;;24.03;79.49;99352.94;5041667;27;114919;-75
2022/08/14 07:15:49;;;;;;;11.50;7.55;;;22.60;28.70;;;24.26;78.48;99351.56;5040939;27;130327;-72
2022/08/14 07:18:21;;;;;;;9.63;7.45;;;22.80;23.70;;;24.70;76.79;99358.34;5042833;27;129188;-72
2022/08/14 07:20:52;;;;;;;10.80;7.45;;;23.20;19.20;;;24.94;75.83;99355.75;5041274;27;118997;-73
2022/08/14 07:23:22;;;;;;;10.70;7.82;;;23.30;13.30;;;25.00;75.55;99354.09;5041478;27;116067;-73
2022/08/14 07:25:54;;;;;;;10.70;7.85;;;23.30;13.20;;;25.19;74.06;99354.69;5040634;27;130366;-72
2022/08/14 07:28:26;;;;;;;11.15;7.60;;;23.50;1.00;;;25.64;71.36;99354.53;5040815;27;129938;-72
2022/08/14 07:30:58;;;;;;;9.43;6.90;;;23.80;1.00;;;25.80;70.16;99349.16;5041015;27;118842;-72
2022/08/14 07:33:29;;;;;;;11.18;7.97;;;24.00;1.00;;;25.81;70.87;99345.16;5040856;27;116123;-74
2022/08/14 07:36:00;;;;;;;10.25;7.40;;;23.70;1.00;;;26.53;68.23;99341.25;5040916;27;130781;-75
2022/08/14 07:38:29;;;;;;;9.57;6.85;;;24.50;1.00;;;27.02;66.61;99349.16;5040864;27;129539;-75
2022/08/14 07:40:59;;;;;;;10.98;6.85;;;24.80;1.00;;;27.34;65.38;99349.75;5040833;27;118980;-74
2022/08/14 07:43:28;;;;;;;10.35;7.88;;;25.10;1.00;;;27.43;64.18;99345.16;5042849;27;114686;-73
2022/08/14 07:45:57;;;;;;;9.70;7.70;;;25.20;1.00;;;27.48;63.31;99343.88;5041087;27;130365;-74
2022/08/14 07:48:25;;;;;;;11.25;8.25;;;25.10;1.00;;;27.39;63.76;99335.31;5040706;27;129899;-73
2022/08/14 07:50:54;;;;;;;10.75;8.00;;;25.00;1.00;;;27.16;63.92;99350.88;5040806;27;119025;-71
2022/08/14 07:53:23;;;;;;;10.15;7.22;;;24.90;1.00;;;27.34;65.34;99344.97;5041151;27;115090;-74
2022/08/14 07:55:52;;;;;;;9.27;7.50;;;25.20;1.00;;;27.77;61.98;99343.25;5045723;27;129767;-75
2022/08/14 07:58:22;;;;;;;10.98;7.78;;;25.60;1.00;;;27.98;60.44;99342.00;5044076;27;129513;-72
2022/08/14 08:00:55;;;;;;;10.80;7.70;;;25.70;1.00;;;27.57;61.46;99344.09;5046043;27;117504;-74
2022/08/14 08:03:26;;;;;;;11.55;7.63;;;25.50;1.00;;;27.79;62.31;99346.41;5044147;27;115364;-74
2022/08/14 08:05:54;;;;;;;8.98;6.90;;;25.60;1.00;;;27.98;61.68;99342.00;5043528;27;129553;-75
2022/08/14 08:08:25;;;;;;;9.27;7.55;;;25.90;1.00;;;28.41;59.19;99346.53;5043657;27;130079;-74
2022/08/14 08:10:55;;;;;;;9.93;7.13;;;26.10;1.00;;;28.78;59.01;99352.81;5046076;27;118931;-75
2022/08/14 08:13:28;;;;;;;10.60;7.32;;;26.40;1.00;;;28.80;57.65;99353.13;5044033;27;115483;-74
2022/08/14 08:15:57;;;;;;;9.13;7.28;;;26.50;1.00;;;28.77;57.40;99356.03;5043502;27;130041;-72
2022/08/14 08:18:27;;;;;;;9.27;7.43;;;26.50;1.00;;;28.74;57.26;99349.31;5045451;27;128302;-73
2022/08/14 08:20:56;;;;;;;12.57;6.95;;;26.60;1.00;;;29.33;55.78;99341.72;5043705;27;118817;-74
2022/08/14 08:23:27;;;;;;;11.07;7.28;;;27.20;1.00;;;29.84;55.69;99351.41;5044076;27;115808;-73
2022/08/14 08:25:57;;;;;;;9.70;7.05;;;27.50;1.00;;;30.25;55.15;99346.91;5045383;27;130121;-74
2022/08/14 08:28:30;;;;;;;9.77;7.25;;;27.70;1.00;;;30.24;52.17;99348.91;5043257;27;129751;-73
2022/08/14 08:31:01;;;;;;;10.25;7.65;;;27.60;1.00;;;29.53;54.54;99337.94;5043858;27;118458;-77
2022/08/14 08:33:34;;;;;;;8.82;7.50;;;27.30;1.00;;;29.42;54.89;99343.06;5043775;27;115274;-73
2022/08/14 08:36:08;;;;;;;11.20;7.93;;;27.20;1.00;;;29.55;55.53;99343.88;5043202;27;130103;-78
2022/08/14 08:38:36;;;;;;;10.98;7.50;;;27.50;1.00;;;29.37;55.37;99342.41;5045227;27;129407;-73
2022/08/14 08:41:05;;;;;;;10.75;7.47;;;27.50;1.00;;;28.90;55.99;99342.91;5043553;27;118857;-72
2022/08/14 08:43:37;;;;;;;7.80;6.75;;;26.90;1.00;;;28.71;56.69;99343.84;5044024;27;115236;-73
2022/08/14 08:46:08;;;;;;;9.70;7.35;;;26.90;1.00;;;28.78;56.53;99341.63;5043859;27;130330;-75
2022/08/14 08:48:46;;;;;;;9.35;7.45;;;26.90;1.00;;;28.67;57.58;99341.13;5043221;27;129524;-73
2022/08/14 08:51:24;;;;;;;9.65;7.05;;;27.00;1.00;;;28.74;57.64;99346.53;5043101;27;118690;-74
2022/08/14 08:54:01;;;;;;;10.30;7.35;;;27.00;1.00;;;29.11;55.69;99340.72;5043636;27;114815;-74
2022/08/14 08:56:38;;;;;;;8.13;6.80;;;27.10;1.00;;;29.28;55.15;99350.66;5042467;27;129690;-74
2022/08/14 08:59:20;;;;;;;11.07;7.10;;;27.20;1.00;;;29.27;55.67;99342.72;5043002;27;130176;-75
2022/08/14 09:01:56;;;;;;;15.32;7.47;;;27.30;1.00;;;29.71;53.87;99346.56;5043013;27;119124;-74
2022/08/14 09:04:26;;;;;;;10.88;7.22;;;27.60;1.00;;;30.18;51.78;99341.56;5043496;27;115219;-74
2022/08/14 09:06:55;;;;;;;10.05;7.00;;;27.90;1.00;;;30.21;50.74;99343.44;5042652;27;130012;-75
2022/08/14 09:09:26;;;;;;;10.30;7.20;;;27.90;1.00;;;30.62;50.58;99344.50;5042594;27;129760;-72
2022/08/14 09:11:57;;;;;;;8.38;5.95;;;28.20;1.00;;;31.08;47.07;99336.50;5042769;27;118792;-74
2022/08/14 09:14:29;;;;;;;10.88;6.70;;;28.50;1.00;;;31.33;46.37;99332.75;5043199;27;116436;-74
2022/08/14 09:16:59;;;;;;;10.10;6.30;;;28.80;1.00;;;30.77;46.85;99337.16;5042524;27;129930;-77
2022/08/14 09:19:28;;;;;;;8.98;6.00;;;28.40;1.00;;;31.26;46.05;99332.25;5042507;27;130865;-76
2022/08/14 09:21:57;;;;;;;10.77;5.38;;;28.80;1.00;;;31.42;46.16;99329.22;5042799;27;120022;-76
2022/08/14 09:24:26;;;;;;;9.95;5.90;;;28.90;1.00;;;31.43;44.95;99325.19;5043212;27;115145;-75
2022/08/14 09:26:54;;;;;;;10.27;6.53;;;28.90;1.00;;;31.56;44.62;99327.16;5042563;27;130505;-74
2022/08/14 09:29:23;;;;;;;7.30;5.78;;;28.90;1.00;;;31.69;45.21;99330.63;5042381;27;130388;-75
2022/08/14 09:31:56;;;;;;;7.50;5.88;;;28.80;1.00;;;31.97;44.57;99333.53;5042802;27;118670;-74
2022/08/14 09:34:50;;;;;;;9.63;5.95;;;28.90;1.00;;;31.65;43.98;99321.56;5041516;27;114968;-73
2022/08/14 09:37:37;;;;;;;8.73;6.40;;;28.70;1.00;;;31.68;44.89;99323.44;5044128;27;129603;-76
2022/08/14 09:40:19;;;;;;;7.30;5.25;;;29.00;1.00;;;32.01;41.62;99322.97;5042363;27;129625;-76
2022/08/14 09:43:02;;;;;;;6.97;4.97;;;29.30;1.00;;;31.35;42.40;99318.28;5042807;27;118716;-74
2022/08/14 09:45:39;;;;;;;9.27;5.30;;;29.10;1.00;;;31.31;41.92;99323.25;5043365;27;115436;-77
2022/08/14 09:48:17;;;;;;;10.48;5.20;;;29.00;1.00;;;31.09;41.32;99312.84;5027226;27;128677;-76
2022/08/14 09:50:48;;;;;;;7.85;4.97;;;29.00;1.00;;;31.30;41.95;99321.69;5042113;27;129427;-77
2022/08/14 09:53:32;;;;;;;7.05;5.18;;;29.10;1.00;;;31.81;40.74;99324.13;5042284;27;118769;-73
2022/08/14 09:56:03;;;;;;;7.15;5.43;;;29.50;1.00;;;31.68;40.29;99320.66;5042693;27;114981;-77
2022/08/14 09:58:39;;;;;;;13.20;7.45;;;29.30;1.00;;;32.00;40.07;99310.94;5041961;27;130208;-74
2022/08/14 10:01:14;;;;;;;9.40;5.65;;;29.50;1.00;;;32.18;40.02;99315.06;5040658;27;129626;-76
2022/08/14 10:03:53;;;;;;;12.52;5.30;;;29.50;1.00;;;31.29;41.25;99308.91;5041951;27;119448;-74
2022/08/14 10:06:24;;;;;;;7.70;5.55;;;29.20;1.00;;;31.28;41.54;99304.56;5041216;27;115732;-75
2022/08/14 10:08:58;;;;;;;6.10;4.60;;;29.20;1.00;;;31.30;41.70;99299.25;5042537;27;129807;-75
2022/08/14 10:11:34;;;;;;;9.65;5.22;;;29.20;1.00;;;31.33;41.01;99303.94;5042736;27;129599;-75
2022/08/14 10:14:16;;;;;;;8.40;5.30;;;29.50;1.00;;;31.62;42.32;99303.66;5042850;27;119569;-75
2022/08/14 10:16:49;;;;;;;7.30;5.03;;;29.70;1.00;;;32.32;40.14;99302.44;5041644;27;115155;-80
2022/08/14 10:19:20;;;;;;;8.63;5.55;;;30.10;1.00;;;32.86;39.79;99305.78;5041903;27;129789;-75
2022/08/14 10:22:00;;;;;;;8.40;5.43;;;30.30;1.00;;;33.34;37.81;99299.63;5041730;27;129584;-75
2022/08/14 10:24:32;;;;;;;8.73;5.25;;;30.70;1.00;;;33.71;37.24;99305.13;5041908;27;119375;-77
2022/08/14 10:27:01;;;;;;;8.50;5.30;;;31.00;1.00;;;33.27;37.03;99301.53;5042099;27;115569;-74
2022/08/14 10:29:33;;;;;;;7.93;5.60;;;30.70;1.00;;;32.67;38.31;99302.19;5041385;27;130429;-76
2022/08/14 10:32:03;;;;;;;8.18;5.18;;;30.30;1.00;;;32.71;38.25;99303.59;5040086;27;130475;-77
2022/08/14 10:34:36;;;;;;;9.30;5.07;;;30.40;1.00;;;32.86;37.56;99303.72;5041891;27;118954;-77
2022/08/14 10:37:09;;;;;;;8.38;4.68;;;30.20;1.00;;;33.24;36.63;99305.28;5042070;27;114971;-75
2022/08/14 10:39:40;;;;;;;7.50;4.95;;;30.40;1.00;;;33.42;38.19;99301.63;5041265;27;129915;-73
2022/08/14 10:42:10;;;;;;;8.02;5.20;;;30.40;1.00;;;33.80;37.10;99303.06;5041602;27;129263;-76
2022/08/14 10:44:46;;;;;;;8.23;5.13;;;30.90;1.00;;;33.37;37.43;99298.69;5043915;27;118486;-75